createdAt,value
2019-03-23T00:00:22.414Z,93.62
2019-03-23T00:01:22.408Z,93.98
2019-03-23T00:02:22.403Z,93.87
2019-03-23T00:03:22.385Z,93.98
2019-03-23T00:04:22.387Z,93.93
2019-03-23T00:05:22.360Z,93.83
2019-03-23T00:06:30.404Z,93.98
2019-03-23T00:07:23.337Z,93.73
2019-03-23T00:08:22.361Z,93.93
2019-03-23T00:09:22.317Z,93.93
2019-03-23T00:10:22.311Z,93.93
2019-03-23T00:11:22.301Z,94.38
2019-03-23T00:12:22.286Z,94.34
2019-03-23T00:13:22.279Z,94.38
2019-03-23T00:14:22.271Z,95.00
2019-03-23T00:15:22.252Z,94.70
2019-03-23T00:16:22.247Z,94.59
2019-03-23T00:17:22.235Z,94.90
2019-03-23T00:18:22.226Z,95.73
2019-03-23T00:19:22.275Z,95.73
2019-03-23T00:20:22.204Z,95.42
2019-03-23T00:21:22.192Z,95.42
2019-03-23T00:22:22.177Z,95.77
2019-03-23T00:23:22.175Z,95.73
2019-03-23T00:24:22.162Z,95.62
2019-03-23T00:25:22.163Z,95.77
2019-03-23T00:26:22.139Z,95.87
2019-03-23T00:27:22.124Z,95.62
2019-03-23T00:28:22.120Z,95.00
2019-03-23T00:29:22.111Z,95.67
2019-03-23T00:30:22.107Z,95.77
2019-03-23T00:31:22.086Z,95.73
2019-03-23T00:32:22.076Z,95.52
2019-03-23T00:33:22.072Z,95.62
2019-03-23T00:34:22.102Z,95.56
2019-03-23T00:35:22.041Z,95.77
2019-03-23T00:36:22.029Z,95.77
2019-03-23T00:37:22.024Z,95.77
2019-03-23T00:38:22.013Z,95.77
2019-03-23T00:39:22.002Z,95.46
2019-03-23T00:40:21.993Z,95.67
2019-03-23T00:41:21.982Z,95.56
2019-03-23T00:42:22.015Z,95.56
2019-03-23T00:43:21.993Z,95.46
2019-03-23T00:44:21.947Z,95.77
2019-03-23T00:45:21.939Z,95.87
2019-03-23T00:46:21.926Z,95.92
2019-03-23T00:47:21.912Z,95.77
2019-03-23T00:48:21.899Z,95.56
2019-03-23T00:49:21.902Z,95.40
2019-03-23T00:50:21.892Z,95.87
2019-03-23T00:51:21.869Z,95.92
2019-03-23T00:52:21.889Z,95.98
2019-03-23T00:53:21.850Z,95.92
2019-03-23T00:54:21.840Z,95.77
2019-03-23T00:55:21.824Z,95.92
2019-03-23T00:56:21.814Z,95.61
2019-03-23T00:57:21.810Z,95.50
2019-03-23T00:58:21.802Z,95.81
2019-03-23T00:59:21.783Z,95.92
2019-03-23T01:00:36.377Z,95.92
2019-03-23T01:01:21.776Z,95.71
2019-03-23T01:02:21.757Z,95.50
2019-03-23T01:03:21.750Z,95.61
2019-03-23T01:04:21.730Z,95.81
2019-03-23T01:05:21.719Z,95.81
2019-03-23T01:06:21.722Z,96.02
2019-03-23T01:07:21.697Z,95.92
2019-03-23T01:08:21.692Z,95.92
2019-03-23T01:09:21.685Z,95.40
2019-03-23T01:10:21.663Z,95.81
2019-03-23T01:11:21.659Z,95.71
2019-03-23T01:12:21.678Z,95.92
2019-03-23T01:13:21.637Z,95.50
2019-03-23T01:14:21.622Z,95.46
2019-03-23T01:15:21.620Z,95.71
2019-03-23T01:16:21.601Z,95.71
2019-03-23T01:17:21.589Z,95.30
2019-03-23T01:18:21.589Z,94.78
2019-03-23T01:19:21.577Z,94.57
2019-03-23T01:20:21.570Z,94.68
2019-03-23T01:21:21.548Z,94.47
2019-03-23T01:22:21.537Z,94.57
2019-03-23T01:23:21.531Z,94.68
2019-03-23T01:24:21.546Z,94.68
2019-03-23T01:25:21.511Z,94.78
2019-03-23T01:26:21.493Z,94.78
2019-03-23T01:27:21.492Z,94.78
2019-03-23T01:28:21.488Z,94.68
2019-03-23T01:29:21.466Z,94.89
2019-03-23T01:30:21.461Z,94.78
2019-03-23T01:31:21.442Z,95.92
2019-03-23T01:32:21.429Z,95.71
2019-03-23T01:33:21.421Z,95.61
2019-03-23T01:34:21.409Z,95.61
2019-03-23T01:35:21.434Z,95.61
2019-03-23T01:36:21.388Z,95.92
2019-03-23T01:37:21.381Z,96.02
2019-03-23T01:38:21.367Z,96.02
2019-03-23T01:39:21.360Z,96.23
2019-03-23T01:40:21.346Z,96.23
2019-03-23T01:41:21.370Z,96.23
2019-03-23T01:42:21.325Z,96.53
2019-03-23T01:43:21.314Z,96.74
2019-03-23T01:44:21.303Z,96.23
2019-03-23T01:45:21.299Z,96.23
2019-03-23T01:46:21.295Z,96.84
2019-03-23T01:47:21.288Z,96.64
2019-03-23T01:48:21.267Z,96.33
2019-03-23T01:49:21.257Z,96.23
2019-03-23T01:50:21.240Z,95.81
2019-03-23T01:51:21.248Z,95.92
2019-03-23T01:52:21.229Z,95.65
2019-03-23T01:53:21.213Z,95.71
2019-03-23T01:54:21.197Z,95.92
2019-03-23T01:55:21.185Z,95.71
2019-03-23T01:56:21.175Z,95.81
2019-03-23T01:57:21.181Z,95.71
2019-03-23T01:58:21.157Z,95.71
2019-03-23T01:59:21.147Z,95.71
2019-03-23T02:00:21.134Z,94.99
2019-03-23T02:01:21.136Z,94.78
2019-03-23T02:02:21.123Z,94.78
2019-03-23T02:03:21.112Z,94.89
2019-03-23T02:04:21.100Z,94.68
2019-03-23T02:05:21.085Z,94.82
2019-03-23T02:06:21.075Z,94.78
2019-03-23T02:07:21.058Z,94.89
2019-03-23T02:08:21.059Z,94.99
2019-03-23T02:09:21.044Z,94.89
2019-03-23T02:10:21.028Z,94.89
2019-03-23T02:11:21.018Z,94.89
2019-03-23T02:12:21.043Z,94.68
2019-03-23T02:13:20.994Z,94.89
2019-03-23T02:14:20.993Z,94.89
2019-03-23T02:15:20.980Z,94.99
2019-03-23T02:16:20.968Z,95.09
2019-03-23T02:17:20.967Z,94.42
2019-03-23T02:18:20.955Z,94.99
2019-03-23T02:19:20.935Z,94.89
2019-03-23T02:20:20.922Z,94.78
2019-03-23T02:21:20.910Z,95.20
2019-03-23T02:22:20.913Z,94.82
2019-03-23T02:23:20.899Z,95.30
2019-03-23T02:24:20.889Z,95.30
2019-03-23T02:25:20.873Z,95.30
2019-03-23T02:26:20.858Z,94.99
2019-03-23T02:27:20.849Z,94.78
2019-03-23T02:28:20.851Z,94.95
2019-03-23T02:29:20.836Z,95.14
2019-03-23T02:30:20.826Z,94.89
2019-03-23T02:31:20.810Z,94.68
2019-03-23T02:32:20.806Z,94.68
2019-03-23T02:33:20.918Z,94.47
2019-03-23T02:34:20.774Z,94.89
2019-03-23T02:35:20.784Z,94.72
2019-03-23T02:36:20.761Z,94.89
2019-03-23T02:37:27.695Z,94.78
2019-03-23T02:38:21.731Z,94.78
2019-03-23T02:39:20.729Z,94.89
2019-03-23T02:40:20.724Z,94.89
2019-03-23T02:41:20.702Z,94.68
2019-03-23T02:42:20.699Z,94.78
2019-03-23T02:43:20.703Z,94.78
2019-03-23T02:44:20.673Z,94.68
2019-03-23T02:45:20.673Z,94.78
2019-03-23T02:46:20.657Z,94.68
2019-03-23T02:47:20.641Z,94.78
2019-03-23T02:48:20.631Z,94.37
2019-03-23T02:49:20.618Z,94.68
2019-03-23T02:50:20.613Z,94.89
2019-03-23T02:51:20.605Z,95.30
2019-03-23T02:52:20.583Z,95.81
2019-03-23T02:53:20.581Z,95.61
2019-03-23T02:54:20.564Z,95.81
2019-03-23T02:55:20.552Z,95.61
2019-03-23T02:56:20.560Z,95.71
2019-03-23T02:57:20.535Z,95.61
2019-03-23T02:58:20.520Z,96.02
2019-03-23T02:59:20.508Z,96.23
2019-03-23T03:00:20.504Z,96.02
2019-03-23T03:01:20.486Z,96.23
2019-03-23T03:02:20.518Z,96.18
2019-03-23T03:03:20.466Z,96.74
2019-03-23T03:04:20.460Z,96.74
2019-03-23T03:05:20.446Z,97.36
2019-03-23T03:06:20.449Z,97.16
2019-03-23T03:07:20.431Z,97.16
2019-03-23T03:08:20.429Z,97.56
2019-03-23T03:09:20.408Z,98.13
2019-03-23T03:10:20.401Z,97.36
2019-03-23T03:11:20.392Z,97.56
2019-03-23T03:12:20.376Z,97.56
2019-03-23T03:13:20.368Z,97.88
2019-03-23T03:14:20.353Z,98.29
2019-03-23T03:15:20.351Z,97.98
2019-03-23T03:16:20.332Z,98.08
2019-03-23T03:17:20.337Z,98.08
2019-03-23T03:18:20.312Z,97.56
2019-03-23T03:19:20.336Z,97.77
2019-03-23T03:20:20.283Z,97.98
2019-03-23T03:21:20.283Z,97.88
2019-03-23T03:22:20.273Z,97.88
2019-03-23T03:23:20.307Z,97.47
2019-03-23T03:24:20.247Z,97.67
2019-03-23T03:25:20.241Z,98.44
2019-03-23T03:26:20.223Z,98.44
2019-03-23T03:27:20.225Z,99.16
2019-03-23T03:28:20.207Z,98.75
2019-03-23T03:29:20.189Z,98.75
2019-03-23T03:30:20.189Z,98.44
2019-03-23T03:31:20.174Z,98.33
2019-03-23T03:32:20.176Z,99.10
2019-03-23T03:33:20.172Z,99.10
2019-03-23T03:34:20.143Z,99.62
2019-03-23T03:35:20.131Z,99.31
2019-03-23T03:36:20.134Z,99.21
2019-03-23T03:37:20.137Z,99.99
2019-03-23T03:38:20.094Z,99.99
2019-03-23T03:39:20.084Z,99.99
2019-03-23T03:40:20.079Z,99.99
2019-03-23T03:41:20.066Z,99.99
2019-03-23T03:42:20.059Z,99.99
2019-03-23T03:43:20.056Z,99.99
2019-03-23T03:44:20.030Z,99.99
2019-03-23T03:45:20.020Z,99.99
2019-03-23T03:46:20.010Z,99.99
2019-03-23T03:47:20.001Z,99.99
2019-03-23T03:48:20.022Z,99.99
2019-03-23T03:49:19.983Z,99.99
2019-03-23T03:50:19.972Z,99.88
2019-03-23T03:51:19.968Z,99.99
2019-03-23T03:52:19.951Z,99.99
2019-03-23T03:53:19.934Z,99.99
2019-03-23T03:54:19.934Z,99.99
2019-03-23T03:55:19.921Z,99.16
2019-03-23T03:56:19.910Z,99.43
2019-03-23T03:57:19.897Z,99.43
2019-03-23T03:58:19.883Z,98.08
2019-03-23T03:59:19.886Z,98.60
2019-03-23T04:00:19.874Z,98.85
2019-03-23T04:01:19.856Z,98.39
2019-03-23T04:02:19.844Z,98.08
2019-03-23T04:03:19.830Z,98.29
2019-03-23T04:04:19.853Z,98.29
2019-03-23T04:05:19.813Z,98.08
2019-03-23T04:06:19.809Z,98.33
2019-03-23T04:07:19.787Z,98.44
2019-03-23T04:08:19.779Z,98.33
2019-03-23T04:09:19.777Z,98.54
2019-03-23T04:10:19.793Z,98.75
2019-03-23T04:11:19.749Z,98.13
2019-03-23T04:12:19.732Z,98.44
2019-03-23T04:13:19.726Z,98.29
2019-03-23T04:14:19.712Z,98.23
2019-03-23T04:15:19.713Z,98.23
2019-03-23T04:16:19.698Z,98.33
2019-03-23T04:17:19.697Z,98.13
2019-03-23T04:18:19.681Z,98.65
2019-03-23T04:19:19.671Z,98.85
2019-03-23T04:20:19.661Z,98.65
2019-03-23T04:21:19.650Z,99.16
2019-03-23T04:22:19.626Z,98.65
2019-03-23T04:23:19.622Z,98.13
2019-03-23T04:24:19.608Z,98.58
2019-03-23T04:25:19.594Z,99.10
2019-03-23T04:26:19.599Z,99.00
2019-03-23T04:27:19.584Z,98.49
2019-03-23T04:28:19.575Z,98.49
2019-03-23T04:29:19.559Z,98.79
2019-03-23T04:30:19.553Z,98.69
2019-03-23T04:31:19.535Z,98.49
2019-03-23T04:32:19.562Z,98.07
2019-03-23T04:33:19.514Z,98.38
2019-03-23T04:34:19.501Z,99.10
2019-03-23T04:35:19.499Z,99.21
2019-03-23T04:36:19.480Z,98.90
2019-03-23T04:37:19.471Z,98.69
2019-03-23T04:38:22.958Z,98.33
2019-03-23T04:39:19.452Z,98.38
2019-03-23T04:40:19.442Z,98.69
2019-03-23T04:41:19.431Z,97.86
2019-03-23T04:42:19.422Z,98.07
2019-03-23T04:43:19.403Z,98.07
2019-03-23T04:44:19.392Z,98.18
2019-03-23T04:45:19.382Z,97.97
2019-03-23T04:46:19.378Z,97.45
2019-03-23T04:47:19.384Z,98.07
2019-03-23T04:48:19.356Z,97.76
2019-03-23T04:49:19.347Z,97.76
2019-03-23T04:50:19.339Z,97.97
2019-03-23T04:51:19.323Z,97.55
2019-03-23T04:52:19.324Z,97.86
2019-03-23T04:53:19.303Z,97.76
2019-03-23T04:54:19.289Z,97.55
2019-03-23T04:55:19.286Z,97.76
2019-03-23T04:56:19.271Z,98.07
2019-03-23T04:57:19.262Z,98.38
2019-03-23T04:58:19.257Z,97.76
2019-03-23T04:59:19.251Z,97.66
2019-03-23T05:00:19.232Z,98.07
2019-03-23T05:01:19.222Z,98.18
2019-03-23T05:02:19.208Z,98.32
2019-03-23T05:03:19.200Z,98.22
2019-03-23T05:04:19.181Z,98.11
2019-03-23T05:05:19.180Z,98.43
2019-03-23T05:06:19.161Z,98.53
2019-03-23T05:07:19.150Z,98.32
2019-03-23T05:08:19.148Z,98.53
2019-03-23T05:09:19.135Z,98.53
2019-03-23T05:10:19.123Z,98.43
2019-03-23T05:11:19.108Z,97.91
2019-03-23T05:12:19.103Z,98.11
2019-03-23T05:13:19.127Z,97.50
2019-03-23T05:14:19.082Z,98.01
2019-03-23T05:15:19.069Z,98.53
2019-03-23T05:16:19.061Z,98.32
2019-03-23T05:17:19.045Z,97.29
2019-03-23T05:18:19.042Z,97.85
2019-03-23T05:19:19.063Z,97.75
2019-03-23T05:20:19.013Z,97.75
2019-03-23T05:21:19.008Z,98.27
2019-03-23T05:22:18.992Z,98.16
2019-03-23T05:23:18.994Z,98.16
2019-03-23T05:24:18.974Z,97.81
2019-03-23T05:25:18.975Z,98.57
2019-03-23T05:26:18.956Z,98.27
2019-03-23T05:27:18.946Z,98.57
2019-03-23T05:28:18.931Z,97.85
2019-03-23T05:29:18.934Z,97.64
2019-03-23T05:30:18.919Z,97.96
2019-03-23T05:31:18.906Z,97.96
2019-03-23T05:32:18.889Z,98.16
2019-03-23T05:33:18.878Z,97.96
2019-03-23T05:34:18.877Z,97.75
2019-03-23T05:35:18.866Z,98.16
2019-03-23T05:36:18.856Z,98.06
2019-03-23T05:37:18.835Z,97.44
2019-03-23T05:38:18.828Z,97.44
2019-03-23T05:39:18.836Z,97.54
2019-03-23T05:40:18.802Z,97.33
2019-03-23T05:41:18.792Z,97.44
2019-03-23T05:42:18.798Z,97.23
2019-03-23T05:43:18.786Z,97.02
2019-03-23T05:44:18.764Z,97.54
2019-03-23T05:45:18.752Z,97.23
2019-03-23T05:46:18.760Z,97.13
2019-03-23T05:47:18.729Z,97.13
2019-03-23T05:48:18.719Z,97.02
2019-03-23T05:49:18.729Z,97.44
2019-03-23T05:50:18.702Z,97.44
2019-03-23T05:51:18.708Z,97.19
2019-03-23T05:52:18.682Z,97.39
2019-03-23T05:53:18.667Z,97.08
2019-03-23T05:54:18.656Z,96.67
2019-03-23T05:55:18.646Z,96.67
2019-03-23T05:56:18.647Z,95.43
2019-03-23T05:57:19.871Z,95.84
2019-03-23T05:58:18.621Z,95.84
2019-03-23T05:59:18.608Z,96.05
2019-03-23T06:00:18.600Z,95.74
2019-03-23T06:01:18.613Z,95.02
2019-03-23T06:02:18.571Z,95.02
2019-03-23T06:03:18.564Z,94.46
2019-03-23T06:04:18.560Z,95.18
2019-03-23T06:05:18.540Z,94.67
2019-03-23T06:06:18.529Z,94.77
2019-03-23T06:07:18.525Z,94.77
2019-03-23T06:08:18.511Z,93.94
2019-03-23T06:09:18.504Z,93.84
2019-03-23T06:10:18.492Z,93.94
2019-03-23T06:11:18.482Z,93.84
2019-03-23T06:12:18.489Z,94.15
2019-03-23T06:13:18.466Z,94.25
2019-03-23T06:14:18.453Z,94.25
2019-03-23T06:15:18.440Z,93.69
2019-03-23T06:16:18.437Z,93.69
2019-03-23T06:17:18.418Z,93.79
2019-03-23T06:18:18.418Z,92.86
2019-03-23T06:19:18.399Z,92.86
2019-03-23T06:20:18.387Z,92.66
2019-03-23T06:21:18.372Z,92.55
2019-03-23T06:22:18.359Z,92.61
2019-03-23T06:23:18.393Z,92.97
2019-03-23T06:24:18.350Z,92.10
2019-03-23T06:25:18.335Z,92.72
2019-03-23T06:26:18.325Z,91.79
2019-03-23T06:27:18.310Z,91.17
2019-03-23T06:28:18.295Z,91.58
2019-03-23T06:29:18.332Z,91.17
2019-03-23T06:30:18.279Z,91.32
2019-03-23T06:31:18.263Z,91.58
2019-03-23T06:32:20.607Z,91.69
2019-03-23T06:33:18.241Z,91.52
2019-03-23T06:34:18.236Z,92.00
2019-03-23T06:35:18.240Z,91.79
2019-03-23T06:36:18.222Z,92.46
2019-03-23T06:37:18.200Z,92.00
2019-03-23T06:38:18.199Z,92.10
2019-03-23T06:39:18.187Z,92.10
2019-03-23T06:40:18.175Z,91.89
2019-03-23T06:41:18.161Z,91.69
2019-03-23T06:42:18.148Z,91.79
2019-03-23T06:43:18.150Z,91.64
2019-03-23T06:44:18.463Z,91.34
2019-03-23T06:45:18.126Z,91.60
2019-03-23T06:46:18.103Z,90.78
2019-03-23T06:47:18.101Z,90.67
2019-03-23T06:48:18.085Z,90.22
2019-03-23T06:49:18.083Z,89.87
2019-03-23T06:50:18.068Z,89.25
2019-03-23T06:51:18.049Z,89.15
2019-03-23T06:52:18.046Z,89.31
2019-03-23T06:53:18.030Z,89.01
2019-03-23T06:54:18.037Z,89.07
2019-03-23T06:55:18.011Z,88.14
2019-03-23T06:56:18.005Z,88.04
2019-03-23T06:57:17.999Z,87.94
2019-03-23T06:58:17.982Z,87.59
2019-03-23T06:59:17.965Z,86.42
2019-03-23T07:00:17.993Z,85.80
2019-03-23T07:02:34.001Z,85.35
2019-03-23T07:03:33.988Z,84.80
2019-03-23T07:04:33.981Z,84.39
2019-03-23T07:05:33.977Z,84.49
2019-03-23T07:06:33.954Z,83.98
2019-03-23T07:07:33.955Z,83.83
2019-03-23T07:08:33.937Z,83.42
2019-03-23T07:09:33.921Z,83.07
2019-03-23T07:10:33.907Z,86.46
2019-03-23T07:11:33.915Z,86.07
2019-03-23T07:12:33.889Z,85.15
2019-03-23T07:13:33.882Z,85.63
2019-03-23T07:14:33.863Z,83.13
2019-03-23T07:15:33.856Z,83.03
2019-03-23T07:16:33.855Z,82.57
2019-03-23T07:17:33.836Z,82.84
2019-03-23T07:18:33.827Z,80.46
2019-03-23T07:19:33.836Z,79.94
2019-03-23T07:20:41.730Z,79.70
2019-03-23T07:21:40.843Z,79.39
2019-03-23T07:22:41.783Z,78.54
2019-03-23T07:23:42.809Z,78.13
2019-03-23T07:24:33.760Z,77.69
2019-03-23T07:25:41.325Z,76.93
2019-03-23T07:26:33.731Z,76.22
2019-03-23T07:27:33.739Z,75.57
2019-03-23T07:28:33.716Z,75.37
2019-03-23T07:29:33.706Z,75.16
2019-03-23T07:30:33.690Z,74.93
2019-03-23T07:31:33.691Z,74.52
2019-03-23T07:32:33.680Z,74.69
2019-03-23T07:33:40.717Z,75.20
2019-03-23T07:34:33.651Z,74.76
2019-03-23T07:35:33.642Z,75.16
2019-03-23T07:36:33.631Z,73.19
2019-03-23T07:37:33.614Z,73.60
2019-03-23T07:38:33.614Z,73.47
2019-03-23T07:39:33.589Z,73.47
2019-03-23T07:40:33.588Z,72.92
2019-03-23T07:41:33.575Z,73.19
2019-03-23T07:42:33.571Z,73.70
2019-03-23T07:43:33.560Z,72.85
2019-03-23T07:44:33.537Z,72.21
2019-03-23T07:45:33.526Z,71.47
2019-03-23T07:46:33.518Z,70.96
2019-03-23T07:47:33.502Z,70.62
2019-03-23T07:48:33.499Z,69.98
2019-03-23T07:49:33.497Z,69.54
2019-03-23T07:50:33.476Z,68.83
2019-03-23T07:51:33.464Z,67.68
2019-03-23T07:52:33.446Z,67.08
2019-03-23T07:53:33.456Z,69.37
2019-03-23T07:54:33.434Z,67.45
2019-03-23T07:55:33.422Z,67.49
2019-03-23T07:56:33.413Z,65.43
2019-03-23T07:57:33.399Z,63.51
2019-03-23T07:58:33.511Z,62.47
2019-03-23T07:59:33.410Z,62.57
2019-03-23T08:00:33.372Z,61.87
2019-03-23T08:01:33.352Z,62.07
2019-03-23T08:02:33.342Z,62.44
2019-03-23T08:03:33.351Z,62.24
2019-03-23T08:04:33.328Z,61.33
2019-03-23T08:05:33.314Z,62.11
2019-03-23T08:06:33.303Z,61.47
2019-03-23T08:07:33.284Z,61.37
2019-03-23T08:08:33.274Z,61.17
2019-03-23T08:09:37.691Z,60.94
2019-03-23T08:10:33.255Z,60.13
2019-03-23T08:11:33.247Z,60.41
2019-03-23T08:12:33.228Z,59.50
2019-03-23T08:13:33.285Z,59.37
2019-03-23T08:14:33.206Z,58.76
2019-03-23T08:15:33.210Z,58.44
2019-03-23T08:16:33.195Z,57.81
2019-03-23T08:17:33.174Z,57.60
2019-03-23T08:18:33.168Z,57.17
2019-03-23T08:19:33.196Z,57.28
2019-03-23T08:20:33.147Z,56.54
2019-03-23T08:21:33.129Z,56.62
2019-03-23T08:22:33.124Z,56.51
2019-03-23T08:23:33.112Z,55.41
2019-03-23T08:24:33.096Z,55.21
2019-03-23T08:25:33.100Z,54.98
2019-03-23T08:26:33.078Z,54.88
2019-03-23T08:27:33.070Z,55.16
2019-03-23T08:28:33.058Z,54.83
2019-03-23T08:29:33.043Z,53.62
2019-03-23T08:30:33.045Z,53.82
2019-03-23T08:31:33.025Z,54.13
2019-03-23T08:32:33.012Z,53.80
2019-03-23T08:33:33.005Z,53.27
2019-03-23T08:34:32.997Z,53.17
2019-03-23T08:35:33.028Z,52.94
2019-03-23T08:36:32.966Z,52.52
2019-03-23T08:37:32.959Z,51.39
2019-03-23T08:38:32.952Z,50.96
2019-03-23T08:39:32.942Z,51.27
2019-03-23T08:40:32.923Z,51.04
2019-03-23T08:41:32.950Z,49.57
2019-03-23T08:42:34.965Z,50.26
2019-03-23T08:43:32.890Z,50.26
2019-03-23T08:44:32.885Z,50.14
2019-03-23T08:45:32.920Z,50.84
2019-03-23T08:46:32.899Z,51.72
2019-03-23T08:47:32.859Z,50.52
2019-03-23T08:48:32.841Z,51.12
2019-03-23T08:49:32.906Z,53.89
2019-03-23T08:50:32.822Z,53.30
2019-03-23T08:51:32.848Z,52.39
2019-03-23T08:52:32.833Z,51.72
2019-03-23T08:53:32.788Z,53.49
2019-03-23T08:54:32.804Z,51.32
2019-03-23T08:55:32.763Z,51.42
2019-03-23T08:56:32.756Z,53.79
2019-03-23T08:57:32.761Z,50.27
2019-03-23T08:58:32.736Z,52.55
2019-03-23T08:59:32.726Z,48.94
2019-03-23T09:00:32.714Z,52.42
2019-03-23T09:01:32.698Z,48.90
2019-03-23T09:02:32.704Z,50.60
2019-03-23T09:03:32.683Z,48.38
2019-03-23T09:04:32.674Z,47.71
2019-03-23T09:05:32.662Z,49.20
2019-03-23T09:06:32.651Z,48.70
2019-03-23T09:07:32.648Z,50.27
2019-03-23T09:08:32.628Z,47.98
2019-03-23T09:09:32.619Z,47.48
2019-03-23T09:10:32.617Z,48.05
2019-03-23T09:11:32.604Z,47.78
2019-03-23T09:12:32.585Z,46.19
2019-03-23T09:13:40.241Z,46.26
2019-03-23T09:14:33.583Z,45.86
2019-03-23T09:15:32.553Z,46.14
2019-03-23T09:16:32.546Z,45.56
2019-03-23T09:17:32.540Z,45.24
2019-03-23T09:18:32.559Z,44.74
2019-03-23T09:19:32.507Z,46.44
2019-03-23T09:20:32.502Z,45.92
2019-03-23T09:21:32.507Z,46.22
2019-03-23T09:22:32.482Z,44.82
2019-03-23T09:23:32.464Z,45.12
2019-03-23T09:24:32.471Z,45.32
2019-03-23T09:25:32.461Z,44.23
2019-03-23T09:26:32.442Z,43.82
2019-03-23T09:27:32.428Z,43.73
2019-03-23T09:28:32.424Z,43.90
2019-03-23T09:29:32.405Z,43.29
2019-03-23T09:30:32.396Z,43.38
2019-03-23T09:31:32.393Z,42.99
2019-03-23T09:32:32.374Z,43.01
2019-03-23T09:33:32.385Z,43.11
2019-03-23T09:34:32.400Z,42.51
2019-03-23T09:35:32.347Z,43.41
2019-03-23T09:36:32.337Z,43.08
2019-03-23T09:37:32.321Z,42.99
2019-03-23T09:38:32.313Z,42.91
2019-03-23T09:39:32.326Z,43.30
2019-03-23T09:40:32.312Z,42.91
2019-03-23T09:41:32.283Z,43.08
2019-03-23T09:42:32.272Z,42.09
2019-03-23T09:43:32.265Z,41.58
2019-03-23T09:44:32.261Z,42.17
2019-03-23T09:45:32.251Z,41.17
2019-03-23T09:46:32.233Z,41.17
2019-03-23T09:47:32.216Z,41.46
2019-03-23T09:48:32.203Z,41.53
2019-03-23T09:49:32.206Z,41.04
2019-03-23T09:50:32.187Z,40.62
2019-03-23T09:51:32.194Z,40.41
2019-03-23T09:52:32.174Z,39.95
2019-03-23T09:53:32.151Z,40.62
2019-03-23T09:54:32.145Z,40.12
2019-03-23T09:55:32.149Z,40.50
2019-03-23T09:56:32.160Z,40.60
2019-03-23T09:57:32.118Z,40.01
2019-03-23T09:58:32.108Z,39.29
2019-03-23T09:59:32.089Z,39.29
2019-03-23T10:00:32.087Z,39.49
2019-03-23T10:01:32.075Z,39.07
2019-03-23T10:02:32.066Z,39.39
2019-03-23T10:03:32.065Z,39.00
2019-03-23T10:04:32.087Z,39.92
2019-03-23T10:05:32.034Z,39.59
2019-03-23T10:06:32.023Z,40.98
2019-03-23T10:07:32.023Z,41.30
2019-03-23T10:08:32.008Z,41.60
2019-03-23T10:09:31.990Z,41.69
2019-03-23T10:10:31.979Z,42.41
2019-03-23T10:11:32.000Z,41.42
2019-03-23T10:12:31.958Z,42.11
2019-03-23T10:13:31.949Z,42.91
2019-03-23T10:14:31.938Z,43.38
2019-03-23T10:15:31.924Z,41.58
2019-03-23T10:16:31.912Z,40.98
2019-03-23T10:17:31.916Z,41.17
2019-03-23T10:18:31.909Z,41.16
2019-03-23T10:19:31.889Z,40.98
2019-03-23T10:20:31.876Z,40.86
2019-03-23T10:21:31.892Z,40.56
2019-03-23T10:22:31.877Z,41.87
2019-03-23T10:23:31.859Z,42.77
2019-03-23T10:24:31.830Z,42.59
2019-03-23T10:25:31.828Z,42.17
2019-03-23T10:26:31.815Z,41.08
2019-03-23T10:27:31.840Z,40.76
2019-03-23T10:28:31.791Z,40.33
2019-03-23T10:29:31.777Z,40.30
2019-03-23T10:30:31.764Z,39.89
2019-03-23T10:31:31.754Z,39.69
2019-03-23T10:32:31.745Z,38.78
2019-03-23T10:33:31.780Z,37.29
2019-03-23T10:34:31.727Z,37.19
2019-03-23T10:35:31.769Z,37.67
2019-03-23T10:36:31.706Z,38.34
2019-03-23T10:37:31.697Z,38.24
2019-03-23T10:38:31.686Z,37.53
2019-03-23T10:39:31.689Z,36.18
2019-03-23T10:40:32.781Z,36.74
2019-03-23T10:41:31.655Z,36.35
2019-03-23T10:42:31.639Z,36.72
2019-03-23T10:43:31.633Z,36.43
2019-03-23T10:44:31.632Z,34.92
2019-03-23T10:45:31.613Z,35.02
2019-03-23T10:46:31.600Z,35.80
2019-03-23T10:47:31.677Z,34.88
2019-03-23T10:48:31.583Z,35.45
2019-03-23T10:49:31.601Z,35.63
2019-03-23T10:50:31.569Z,34.55
2019-03-23T10:51:31.547Z,34.25
2019-03-23T10:52:32.554Z,33.15
2019-03-23T10:53:31.547Z,33.72
2019-03-23T10:54:31.520Z,34.20
2019-03-23T10:55:31.524Z,32.56
2019-03-23T10:56:31.505Z,33.04
2019-03-23T10:57:31.485Z,33.58
2019-03-23T10:58:31.479Z,33.67
2019-03-23T10:59:31.465Z,33.77
2019-03-23T11:00:31.475Z,34.05
2019-03-23T11:01:31.456Z,33.46
2019-03-23T11:02:31.445Z,33.26
2019-03-23T11:03:31.439Z,33.47
2019-03-23T11:04:31.418Z,33.58
2019-03-23T11:05:31.409Z,33.69
2019-03-23T11:06:31.407Z,33.29
2019-03-23T11:07:31.396Z,32.29
2019-03-23T11:08:31.375Z,34.08
2019-03-23T11:09:31.378Z,34.06
2019-03-23T11:10:31.353Z,34.28
2019-03-23T11:11:31.349Z,33.59
2019-03-23T11:12:31.346Z,33.80
2019-03-23T11:13:31.336Z,34.39
2019-03-23T11:14:31.317Z,35.30
2019-03-23T11:15:31.311Z,34.59
2019-03-23T11:16:38.875Z,34.31
2019-03-23T11:17:31.281Z,35.12
2019-03-23T11:18:31.276Z,34.31
2019-03-23T11:19:31.265Z,34.39
2019-03-23T11:20:31.259Z,35.70
2019-03-23T11:21:31.257Z,34.39
2019-03-23T11:22:31.252Z,34.50
2019-03-23T11:23:31.224Z,33.59
2019-03-23T11:24:31.210Z,33.67
2019-03-23T11:25:31.202Z,33.75
2019-03-23T11:26:31.198Z,34.05
2019-03-23T11:27:31.202Z,34.15
2019-03-23T11:28:31.178Z,33.97
2019-03-23T11:29:31.157Z,33.56
2019-03-23T11:30:31.148Z,33.77
2019-03-23T11:31:31.168Z,34.08
2019-03-23T11:32:31.141Z,34.97
2019-03-23T11:33:31.122Z,34.38
2019-03-23T11:34:31.106Z,35.66
2019-03-23T11:35:31.096Z,35.05
2019-03-23T11:36:31.118Z,34.88
2019-03-23T11:37:31.332Z,35.45
2019-03-23T11:38:31.076Z,34.95
2019-03-23T11:39:31.063Z,34.36
2019-03-23T11:40:31.053Z,34.78
2019-03-23T11:41:31.034Z,35.37
2019-03-23T11:42:31.030Z,35.75
2019-03-23T11:43:38.116Z,35.55
2019-03-23T11:44:31.009Z,35.43
2019-03-23T11:45:30.994Z,35.52
2019-03-23T11:46:30.983Z,35.22
2019-03-23T11:47:30.978Z,35.00
2019-03-23T11:48:30.968Z,33.82
2019-03-23T11:49:30.969Z,33.82
2019-03-23T11:50:38.537Z,34.41
2019-03-23T11:51:30.937Z,34.72
2019-03-23T11:52:30.923Z,35.12
2019-03-23T11:53:30.912Z,35.41
2019-03-23T11:54:30.917Z,35.22
2019-03-23T11:55:30.897Z,35.50
2019-03-23T11:56:30.887Z,34.63
2019-03-23T11:57:30.876Z,34.71
2019-03-23T11:58:30.871Z,34.51
2019-03-23T11:59:37.941Z,34.30
2019-03-23T12:00:30.839Z,34.58
2019-03-23T12:01:30.836Z,33.29
2019-03-23T12:02:30.821Z,33.49
2019-03-23T12:03:30.809Z,33.91
2019-03-23T12:04:30.806Z,32.64
2019-03-23T12:05:30.812Z,33.54
2019-03-23T12:06:30.783Z,33.46
2019-03-23T12:07:30.773Z,32.77
2019-03-23T12:08:30.758Z,32.47
2019-03-23T12:09:30.752Z,32.56
2019-03-23T12:10:30.773Z,32.16
2019-03-23T12:11:30.728Z,32.57
2019-03-23T12:12:30.721Z,32.77
2019-03-23T12:13:30.710Z,33.56
2019-03-23T12:14:30.696Z,33.26
2019-03-23T12:15:30.686Z,33.46
2019-03-23T12:16:30.689Z,33.44
2019-03-23T12:17:30.666Z,33.74
2019-03-23T12:18:30.660Z,33.95
2019-03-23T12:19:30.667Z,35.04
2019-03-23T12:20:30.644Z,34.25
2019-03-23T12:21:30.634Z,34.94
2019-03-23T12:22:30.620Z,34.92
2019-03-23T12:23:30.605Z,35.45
2019-03-23T12:24:30.600Z,35.57
2019-03-23T12:25:30.587Z,36.16
2019-03-23T12:26:30.631Z,36.18
2019-03-23T12:27:30.573Z,35.66
2019-03-23T12:28:30.561Z,35.21
2019-03-23T12:29:30.553Z,35.60
2019-03-23T12:30:30.543Z,35.61
2019-03-23T12:31:30.537Z,36.11
2019-03-23T12:32:30.529Z,36.44
2019-03-23T12:33:30.516Z,38.34
2019-03-23T12:34:30.499Z,38.24
2019-03-23T12:35:30.485Z,37.95
2019-03-23T12:36:30.480Z,38.34
2019-03-23T12:37:30.487Z,38.34
2019-03-23T12:38:30.458Z,37.67
2019-03-23T12:39:30.443Z,38.60
2019-03-23T12:40:30.440Z,39.29
2019-03-23T12:41:30.430Z,39.29
2019-03-23T12:42:37.500Z,39.23
2019-03-23T12:43:38.123Z,40.33
2019-03-23T12:44:38.154Z,39.95
2019-03-23T12:45:38.921Z,40.36
2019-03-23T12:46:47.980Z,41.39
2019-03-23T12:53:15.206Z,41.33
2019-03-23T12:54:22.238Z,42.05
2019-03-23T12:55:22.947Z,42.45
2019-03-23T12:56:22.975Z,42.19
2019-03-23T12:57:22.994Z,43.11
2019-03-23T12:58:15.135Z,42.99
2019-03-23T12:59:15.125Z,41.69